sensor_id;sensor_type;location;lat;lon;timestamp;P1;durP1;ratioP1;P2;durP2;ratioP2
41817;SDS011;27493;51.730;5.294;2022-09-09T00:04:09;2.57;;;1.40;;
41817;SDS011;27493;51.730;5.294;2022-09-09T00:09:25;1.30;;;1.20;;
41817;SDS011;27493;51.730;5.294;2022-09-09T00:11:52;3.03;;;1.90;;
41817;SDS011;27493;51.730;5.294;2022-09-09T00:14:22;3.40;;;1.80;;
41817;SDS011;27493;51.730;5.294;2022-09-09T00:16:50;1.50;;;1.40;;
41817;SDS011;27493;51.730;5.294;2022-09-09T00:19:19;1.47;;;1.37;;
41817;SDS011;27493;51.730;5.294;2022-09-09T00:24:46;1.80;;;1.30;;
41817;SDS011;27493;51.730;5.294;2022-09-09T00:30:12;2.20;;;1.60;;
41817;SDS011;27493;51.730;5.294;2022-09-09T00:32:37;1.57;;;1.47;;
41817;SDS011;27493;51.730;5.294;2022-09-09T00:35:21;2.73;;;1.30;;
41817;SDS011;27493;51.730;5.294;2022-09-09T00:37:47;1.50;;;1.30;;
41817;SDS011;27493;51.730;5.294;2022-09-09T00:42:48;2.07;;;1.63;;
41817;SDS011;27493;51.730;5.294;2022-09-09T00:47:59;1.97;;;1.70;;
41817;SDS011;27493;51.730;5.294;2022-09-09T00:50:30;1.80;;;1.50;;
41817;SDS011;27493;51.730;5.294;2022-09-09T00:57:51;2.13;;;1.80;;
41817;SDS011;27493;51.730;5.294;2022-09-09T01:00:18;3.17;;;1.80;;
41817;SDS011;27493;51.730;5.294;2022-09-09T01:05:26;2.73;;;1.70;;
41817;SDS011;27493;51.730;5.294;2022-09-09T01:07:53;1.80;;;1.50;;
41817;SDS011;27493;51.730;5.294;2022-09-09T01:13:04;2.10;;;1.90;;
41817;SDS011;27493;51.730;5.294;2022-09-09T01:15:32;2.83;;;1.70;;
41817;SDS011;27493;51.730;5.294;2022-09-09T01:20:27;2.33;;;1.70;;
41817;SDS011;27493;51.730;5.294;2022-09-09T01:28:08;1.70;;;1.60;;
41817;SDS011;27493;51.730;5.294;2022-09-09T01:30:37;2.20;;;2.00;;
41817;SDS011;27493;51.730;5.294;2022-09-09T01:33:03;2.23;;;1.90;;
41817;SDS011;27493;51.730;5.294;2022-09-09T01:35:48;2.37;;;1.67;;
41817;SDS011;27493;51.730;5.294;2022-09-09T01:38:16;2.90;;;1.80;;
41817;SDS011;27493;51.730;5.294;2022-09-09T01:40:41;1.83;;;1.70;;
41817;SDS011;27493;51.730;5.294;2022-09-09T01:43:07;1.90;;;1.70;;
41817;SDS011;27493;51.730;5.294;2022-09-09T01:45:32;1.77;;;1.60;;
41817;SDS011;27493;51.730;5.294;2022-09-09T01:47:58;1.73;;;1.63;;
41817;SDS011;27493;51.730;5.294;2022-09-09T01:50:24;4.03;;;1.87;;
41817;SDS011;27493;51.730;5.294;2022-09-09T01:52:50;4.50;;;2.13;;
41817;SDS011;27493;51.730;5.294;2022-09-09T01:55:18;2.37;;;1.67;;
41817;SDS011;27493;51.730;5.294;2022-09-09T01:57:56;2.33;;;1.90;;
41817;SDS011;27493;51.730;5.294;2022-09-09T02:00:23;1.73;;;1.60;;
41817;SDS011;27493;51.730;5.294;2022-09-09T02:05:36;5.97;;;2.07;;
41817;SDS011;27493;51.730;5.294;2022-09-09T02:08:09;2.10;;;1.90;;
41817;SDS011;27493;51.730;5.294;2022-09-09T02:10:37;2.40;;;2.20;;
41817;SDS011;27493;51.730;5.294;2022-09-09T02:13:07;1.77;;;1.60;;
41817;SDS011;27493;51.730;5.294;2022-09-09T02:15:37;2.00;;;1.80;;
41817;SDS011;27493;51.730;5.294;2022-09-09T02:18:06;2.60;;;1.73;;
41817;SDS011;27493;51.730;5.294;2022-09-09T02:20:32;2.23;;;2.03;;
41817;SDS011;27493;51.730;5.294;2022-09-09T02:22:59;2.17;;;1.80;;
41817;SDS011;27493;51.730;5.294;2022-09-09T02:25:26;2.30;;;2.00;;
41817;SDS011;27493;51.730;5.294;2022-09-09T02:27:52;2.73;;;1.90;;
41817;SDS011;27493;51.730;5.294;2022-09-09T02:30:18;2.07;;;1.90;;
41817;SDS011;27493;51.730;5.294;2022-09-09T02:32:47;2.43;;;2.03;;
41817;SDS011;27493;51.730;5.294;2022-09-09T02:35:15;3.27;;;2.10;;
41817;SDS011;27493;51.730;5.294;2022-09-09T02:37:41;5.10;;;2.27;;
41817;SDS011;27493;51.730;5.294;2022-09-09T02:40:09;2.00;;;1.80;;
41817;SDS011;27493;51.730;5.294;2022-09-09T02:42:42;2.67;;;1.87;;
41817;SDS011;27493;51.730;5.294;2022-09-09T02:45:08;3.37;;;2.13;;
41817;SDS011;27493;51.730;5.294;2022-09-09T02:47:35;2.33;;;2.00;;
41817;SDS011;27493;51.730;5.294;2022-09-09T02:50:20;3.57;;;2.00;;
41817;SDS011;27493;51.730;5.294;2022-09-09T02:58:01;2.50;;;2.00;;
41817;SDS011;27493;51.730;5.294;2022-09-09T03:00:29;2.27;;;2.07;;
41817;SDS011;27493;51.730;5.294;2022-09-09T03:02:55;2.37;;;1.90;;
41817;SDS011;27493;51.730;5.294;2022-09-09T03:05:20;2.20;;;1.93;;
41817;SDS011;27493;51.730;5.294;2022-09-09T03:07:46;2.30;;;2.10;;
41817;SDS011;27493;51.730;5.294;2022-09-09T03:10:11;2.90;;;2.17;;
41817;SDS011;27493;51.730;5.294;2022-09-09T03:12:36;2.63;;;2.00;;
41817;SDS011;27493;51.730;5.294;2022-09-09T03:15:02;2.77;;;2.13;;
41817;SDS011;27493;51.730;5.294;2022-09-09T03:17:27;2.87;;;2.20;;
41817;SDS011;27493;51.730;5.294;2022-09-09T03:19:53;2.73;;;1.93;;
41817;SDS011;27493;51.730;5.294;2022-09-09T03:22:19;5.00;;;2.17;;
41817;SDS011;27493;51.730;5.294;2022-09-09T03:24:45;2.80;;;1.87;;
41817;SDS011;27493;51.730;5.294;2022-09-09T03:27:11;5.27;;;2.40;;
41817;SDS011;27493;51.730;5.294;2022-09-09T03:29:37;3.13;;;2.20;;
41817;SDS011;27493;51.730;5.294;2022-09-09T03:32:02;5.40;;;2.30;;
41817;SDS011;27493;51.730;5.294;2022-09-09T03:34:27;1.80;;;1.70;;
41817;SDS011;27493;51.730;5.294;2022-09-09T03:36:52;3.57;;;2.20;;
41817;SDS011;27493;51.730;5.294;2022-09-09T03:39:18;2.93;;;2.43;;
41817;SDS011;27493;51.730;5.294;2022-09-09T03:41:43;2.10;;;1.90;;
41817;SDS011;27493;51.730;5.294;2022-09-09T03:44:10;4.10;;;2.50;;
41817;SDS011;27493;51.730;5.294;2022-09-09T03:46:35;3.70;;;1.90;;
41817;SDS011;27493;51.730;5.294;2022-09-09T03:49:00;2.13;;;1.93;;
41817;SDS011;27493;51.730;5.294;2022-09-09T03:51:26;2.80;;;2.30;;
41817;SDS011;27493;51.730;5.294;2022-09-09T03:53:51;2.43;;;2.23;;
41817;SDS011;27493;51.730;5.294;2022-09-09T03:56:17;4.63;;;2.30;;
41817;SDS011;27493;51.730;5.294;2022-09-09T03:58:42;1.83;;;1.70;;
41817;SDS011;27493;51.730;5.294;2022-09-09T04:01:11;4.70;;;2.20;;
41817;SDS011;27493;51.730;5.294;2022-09-09T04:03:41;2.53;;;2.03;;
41817;SDS011;27493;51.730;5.294;2022-09-09T04:06:12;2.60;;;1.80;;
41817;SDS011;27493;51.730;5.294;2022-09-09T04:08:38;2.77;;;2.20;;
41817;SDS011;27493;51.730;5.294;2022-09-09T04:11:04;3.93;;;2.07;;
41817;SDS011;27493;51.730;5.294;2022-09-09T04:13:31;2.20;;;1.80;;
41817;SDS011;27493;51.730;5.294;2022-09-09T04:15:58;2.67;;;2.00;;
41817;SDS011;27493;51.730;5.294;2022-09-09T04:18:23;4.60;;;2.00;;
41817;SDS011;27493;51.730;5.294;2022-09-09T04:20:49;2.10;;;1.60;;
41817;SDS011;27493;51.730;5.294;2022-09-09T04:23:15;2.17;;;1.90;;
41817;SDS011;27493;51.730;5.294;2022-09-09T04:25:44;2.83;;;2.13;;
41817;SDS011;27493;51.730;5.294;2022-09-09T04:28:10;3.23;;;1.90;;
41817;SDS011;27493;51.730;5.294;2022-09-09T04:30:35;5.57;;;1.90;;
41817;SDS011;27493;51.730;5.294;2022-09-09T04:33:00;2.20;;;1.97;;
41817;SDS011;27493;51.730;5.294;2022-09-09T04:35:26;3.17;;;2.00;;
41817;SDS011;27493;51.730;5.294;2022-09-09T04:37:52;7.73;;;2.50;;
41817;SDS011;27493;51.730;5.294;2022-09-09T04:40:17;4.27;;;2.30;;
41817;SDS011;27493;51.730;5.294;2022-09-09T04:42:42;4.37;;;2.17;;
41817;SDS011;27493;51.730;5.294;2022-09-09T04:45:09;2.93;;;2.10;;
41817;SDS011;27493;51.730;5.294;2022-09-09T04:47:36;2.97;;;2.10;;
41817;SDS011;27493;51.730;5.294;2022-09-09T04:50:01;3.23;;;2.10;;
41817;SDS011;27493;51.730;5.294;2022-09-09T04:52:26;4.47;;;2.30;;
41817;SDS011;27493;51.730;5.294;2022-09-09T04:54:51;3.07;;;2.00;;
41817;SDS011;27493;51.730;5.294;2022-09-09T04:57:19;4.57;;;2.10;;
41817;SDS011;27493;51.730;5.294;2022-09-09T04:59:44;2.20;;;2.00;;
41817;SDS011;27493;51.730;5.294;2022-09-09T05:02:10;4.50;;;2.00;;
41817;SDS011;27493;51.730;5.294;2022-09-09T05:04:36;2.80;;;2.00;;
41817;SDS011;27493;51.730;5.294;2022-09-09T05:07:01;4.93;;;2.10;;
41817;SDS011;27493;51.730;5.294;2022-09-09T05:09:26;5.13;;;2.20;;
41817;SDS011;27493;51.730;5.294;2022-09-09T05:11:51;3.03;;;2.00;;
41817;SDS011;27493;51.730;5.294;2022-09-09T05:14:17;2.37;;;2.17;;
41817;SDS011;27493;51.730;5.294;2022-09-09T05:16:43;2.97;;;1.93;;
41817;SDS011;27493;51.730;5.294;2022-09-09T05:19:09;3.93;;;2.20;;
41817;SDS011;27493;51.730;5.294;2022-09-09T05:21:34;3.63;;;2.00;;
41817;SDS011;27493;51.730;5.294;2022-09-09T05:23:59;2.20;;;2.00;;
41817;SDS011;27493;51.730;5.294;2022-09-09T05:26:28;4.70;;;1.80;;
41817;SDS011;27493;51.730;5.294;2022-09-09T05:28:54;1.80;;;1.70;;
41817;SDS011;27493;51.730;5.294;2022-09-09T05:31:20;2.00;;;1.70;;
41817;SDS011;27493;51.730;5.294;2022-09-09T05:33:48;4.03;;;1.80;;
41817;SDS011;27493;51.730;5.294;2022-09-09T05:38:39;2.07;;;1.77;;
41817;SDS011;27493;51.730;5.294;2022-09-09T05:41:05;4.47;;;1.90;;
41817;SDS011;27493;51.730;5.294;2022-09-09T05:43:31;4.40;;;1.90;;
41817;SDS011;27493;51.730;5.294;2022-09-09T05:46:02;5.93;;;1.90;;
41817;SDS011;27493;51.730;5.294;2022-09-09T05:48:28;2.47;;;1.90;;
41817;SDS011;27493;51.730;5.294;2022-09-09T05:50:53;3.60;;;1.90;;
41817;SDS011;27493;51.730;5.294;2022-09-09T05:53:21;6.73;;;2.23;;
41817;SDS011;27493;51.730;5.294;2022-09-09T05:55:46;5.10;;;2.00;;
41817;SDS011;27493;51.730;5.294;2022-09-09T05:58:12;2.33;;;1.60;;
41817;SDS011;27493;51.730;5.294;2022-09-09T06:00:37;3.77;;;1.87;;
41817;SDS011;27493;51.730;5.294;2022-09-09T06:03:03;4.40;;;1.90;;
41817;SDS011;27493;51.730;5.294;2022-09-09T06:05:28;4.50;;;1.77;;
41817;SDS011;27493;51.730;5.294;2022-09-09T06:07:54;3.73;;;1.70;;
41817;SDS011;27493;51.730;5.294;2022-09-09T06:10:20;1.90;;;1.70;;
41817;SDS011;27493;51.730;5.294;2022-09-09T06:12:45;5.47;;;1.90;;
41817;SDS011;27493;51.730;5.294;2022-09-09T06:15:10;4.70;;;1.70;;
41817;SDS011;27493;51.730;5.294;2022-09-09T06:17:35;8.93;;;2.50;;
41817;SDS011;27493;51.730;5.294;2022-09-09T06:20:01;3.60;;;1.80;;
41817;SDS011;27493;51.730;5.294;2022-09-09T06:22:26;3.53;;;2.50;;
41817;SDS011;27493;51.730;5.294;2022-09-09T06:24:51;5.87;;;1.97;;
41817;SDS011;27493;51.730;5.294;2022-09-09T06:27:18;3.80;;;2.10;;
41817;SDS011;27493;51.730;5.294;2022-09-09T06:29:43;2.13;;;1.87;;
41817;SDS011;27493;51.730;5.294;2022-09-09T06:32:08;2.30;;;1.80;;
41817;SDS011;27493;51.730;5.294;2022-09-09T06:34:34;4.40;;;1.90;;
41817;SDS011;27493;51.730;5.294;2022-09-09T06:37:00;3.33;;;1.80;;
41817;SDS011;27493;51.730;5.294;2022-09-09T06:39:25;3.03;;;2.07;;
41817;SDS011;27493;51.730;5.294;2022-09-09T06:41:51;3.17;;;2.00;;
41817;SDS011;27493;51.730;5.294;2022-09-09T06:44:18;4.20;;;1.90;;
41817;SDS011;27493;51.730;5.294;2022-09-09T06:46:43;3.13;;;2.00;;
41817;SDS011;27493;51.730;5.294;2022-09-09T06:49:11;2.70;;;2.10;;
41817;SDS011;27493;51.730;5.294;2022-09-09T06:51:36;2.40;;;1.80;;
41817;SDS011;27493;51.730;5.294;2022-09-09T06:54:07;4.60;;;2.17;;
41817;SDS011;27493;51.730;5.294;2022-09-09T06:56:33;5.40;;;2.20;;
41817;SDS011;27493;51.730;5.294;2022-09-09T06:59:00;6.23;;;2.00;;
41817;SDS011;27493;51.730;5.294;2022-09-09T07:01:29;5.27;;;2.30;;
41817;SDS011;27493;51.730;5.294;2022-09-09T07:03:55;6.90;;;2.30;;
41817;SDS011;27493;51.730;5.294;2022-09-09T07:06:32;3.63;;;2.10;;
41817;SDS011;27493;51.730;5.294;2022-09-09T07:09:02;4.13;;;2.17;;
41817;SDS011;27493;51.730;5.294;2022-09-09T07:11:29;3.40;;;2.13;;
41817;SDS011;27493;51.730;5.294;2022-09-09T07:13:55;4.47;;;2.23;;
41817;SDS011;27493;51.730;5.294;2022-09-09T07:16:22;3.70;;;1.93;;
41817;SDS011;27493;51.730;5.294;2022-09-09T07:18:51;4.60;;;2.20;;
41817;SDS011;27493;51.730;5.294;2022-09-09T07:21:16;5.57;;;2.07;;
41817;SDS011;27493;51.730;5.294;2022-09-09T07:23:42;6.63;;;2.40;;
41817;SDS011;27493;51.730;5.294;2022-09-09T07:26:10;3.97;;;2.37;;
41817;SDS011;27493;51.730;5.294;2022-09-09T07:28:36;2.20;;;2.00;;
41817;SDS011;27493;51.730;5.294;2022-09-09T07:31:02;5.43;;;2.20;;
41817;SDS011;27493;51.730;5.294;2022-09-09T07:33:28;4.90;;;2.10;;
41817;SDS011;27493;51.730;5.294;2022-09-09T07:36:01;6.30;;;2.33;;
41817;SDS011;27493;51.730;5.294;2022-09-09T07:38:26;4.47;;;2.07;;
41817;SDS011;27493;51.730;5.294;2022-09-09T07:40:52;3.83;;;2.00;;
41817;SDS011;27493;51.730;5.294;2022-09-09T07:43:17;4.20;;;1.93;;
41817;SDS011;27493;51.730;5.294;2022-09-09T07:45:43;4.00;;;2.07;;
41817;SDS011;27493;51.730;5.294;2022-09-09T07:48:09;6.37;;;2.10;;
41817;SDS011;27493;51.730;5.294;2022-09-09T07:50:35;2.87;;;1.93;;
41817;SDS011;27493;51.730;5.294;2022-09-09T07:53:01;4.37;;;2.20;;
41817;SDS011;27493;51.730;5.294;2022-09-09T07:55:27;3.93;;;2.13;;
41817;SDS011;27493;51.730;5.294;2022-09-09T07:57:53;3.67;;;2.00;;
41817;SDS011;27493;51.730;5.294;2022-09-09T08:00:18;3.27;;;2.10;;
41817;SDS011;27493;51.730;5.294;2022-09-09T08:02:44;5.80;;;2.03;;
41817;SDS011;27493;51.730;5.294;2022-09-09T08:05:11;1.70;;;1.53;;
41817;SDS011;27493;51.730;5.294;2022-09-09T08:07:37;4.10;;;2.33;;
41817;SDS011;27493;51.730;5.294;2022-09-09T08:10:03;5.30;;;2.00;;
41817;SDS011;27493;51.730;5.294;2022-09-09T08:12:28;3.20;;;1.93;;
41817;SDS011;27493;51.730;5.294;2022-09-09T08:14:53;2.30;;;1.57;;
41817;SDS011;27493;51.730;5.294;2022-09-09T08:17:19;3.73;;;1.87;;
41817;SDS011;27493;51.730;5.294;2022-09-09T08:19:44;4.43;;;1.90;;
41817;SDS011;27493;51.730;5.294;2022-09-09T08:22:10;4.43;;;1.70;;
41817;SDS011;27493;51.730;5.294;2022-09-09T08:24:35;2.97;;;1.77;;
41817;SDS011;27493;51.730;5.294;2022-09-09T08:27:00;6.40;;;1.73;;
41817;SDS011;27493;51.730;5.294;2022-09-09T08:29:26;1.90;;;1.70;;
41817;SDS011;27493;51.730;5.294;2022-09-09T08:31:53;3.23;;;1.80;;
41817;SDS011;27493;51.730;5.294;2022-09-09T08:34:19;6.07;;;1.70;;
41817;SDS011;27493;51.730;5.294;2022-09-09T08:36:45;2.57;;;1.60;;
41817;SDS011;27493;51.730;5.294;2022-09-09T08:39:12;3.33;;;1.70;;
41817;SDS011;27493;51.730;5.294;2022-09-09T08:50:07;6.93;;;1.83;;
41817;SDS011;27493;51.730;5.294;2022-09-09T08:52:31;5.90;;;1.70;;
41817;SDS011;27493;51.730;5.294;2022-09-09T08:55:47;2.60;;;1.57;;
41817;SDS011;27493;51.730;5.294;2022-09-09T08:57:47;2.43;;;1.60;;
41817;SDS011;27493;51.730;5.294;2022-09-09T09:00:13;2.30;;;1.63;;
41817;SDS011;27493;51.730;5.294;2022-09-09T09:05:23;2.40;;;1.50;;
41817;SDS011;27493;51.730;5.294;2022-09-09T09:12:45;2.63;;;1.60;;
41817;SDS011;27493;51.730;5.294;2022-09-09T09:15:25;6.93;;;1.67;;
41817;SDS011;27493;51.730;5.294;2022-09-09T09:17:51;3.57;;;1.60;;
41817;SDS011;27493;51.730;5.294;2022-09-09T09:20:17;2.27;;;1.57;;
41817;SDS011;27493;51.730;5.294;2022-09-09T09:25:16;4.70;;;1.90;;
41817;SDS011;27493;51.730;5.294;2022-09-09T09:30:26;2.67;;;1.53;;
41817;SDS011;27493;51.730;5.294;2022-09-09T09:35:18;2.93;;;1.60;;
41817;SDS011;27493;51.730;5.294;2022-09-09T09:37:44;2.33;;;1.60;;
41817;SDS011;27493;51.730;5.294;2022-09-09T09:40:13;4.17;;;1.40;;
41817;SDS011;27493;51.730;5.294;2022-09-09T09:42:57;5.23;;;1.60;;
41817;SDS011;27493;51.730;5.294;2022-09-09T09:45:26;5.27;;;1.73;;
41817;SDS011;27493;51.730;5.294;2022-09-09T09:50:25;1.57;;;1.43;;
41817;SDS011;27493;51.730;5.294;2022-09-09T09:53:00;2.90;;;1.80;;
41817;SDS011;27493;51.730;5.294;2022-09-09T09:55:27;3.20;;;2.00;;
41817;SDS011;27493;51.730;5.294;2022-09-09T09:57:54;3.33;;;1.80;;
41817;SDS011;27493;51.730;5.294;2022-09-09T10:00:25;2.53;;;1.70;;
41817;SDS011;27493;51.730;5.294;2022-09-09T10:02:50;2.47;;;1.57;;
41817;SDS011;27493;51.730;5.294;2022-09-09T10:05:24;7.43;;;2.03;;
41817;SDS011;27493;51.730;5.294;2022-09-09T10:08:00;3.23;;;1.77;;
41817;SDS011;27493;51.730;5.294;2022-09-09T10:10:27;3.87;;;2.00;;
41817;SDS011;27493;51.730;5.294;2022-09-09T10:13:02;3.13;;;1.80;;
41817;SDS011;27493;51.730;5.294;2022-09-09T10:15:43;2.53;;;2.13;;
41817;SDS011;27493;51.730;5.294;2022-09-09T10:31:45;4.50;;;2.10;;
41817;SDS011;27493;51.730;5.294;2022-09-09T10:36:44;3.33;;;1.60;;
41817;SDS011;27493;51.730;5.294;2022-09-09T10:39:31;4.93;;;2.20;;
41817;SDS011;27493;51.730;5.294;2022-09-09T10:47:11;3.83;;;1.87;;
41817;SDS011;27493;51.730;5.294;2022-09-09T10:49:48;4.43;;;1.80;;
41817;SDS011;27493;51.730;5.294;2022-09-09T10:57:29;3.53;;;1.90;;
41817;SDS011;27493;51.730;5.294;2022-09-09T10:59:58;2.30;;;1.77;;
41817;SDS011;27493;51.730;5.294;2022-09-09T11:02:29;5.17;;;2.30;;
41817;SDS011;27493;51.730;5.294;2022-09-09T11:05:02;4.20;;;2.10;;
41817;SDS011;27493;51.730;5.294;2022-09-09T11:07:39;4.97;;;2.03;;
41817;SDS011;27493;51.730;5.294;2022-09-09T11:10:11;2.03;;;1.70;;
41817;SDS011;27493;51.730;5.294;2022-09-09T11:12:41;2.57;;;1.67;;
41817;SDS011;27493;51.730;5.294;2022-09-09T11:15:17;5.23;;;1.97;;
41817;SDS011;27493;51.730;5.294;2022-09-09T11:17:45;4.03;;;1.93;;
41817;SDS011;27493;51.730;5.294;2022-09-09T11:20:12;2.20;;;1.77;;
41817;SDS011;27493;51.730;5.294;2022-09-09T11:22:39;4.40;;;2.10;;
41817;SDS011;27493;51.730;5.294;2022-09-09T11:26:10;3.83;;;1.83;;
41817;SDS011;27493;51.730;5.294;2022-09-09T11:36:33;6.20;;;2.27;;
41817;SDS011;27493;51.730;5.294;2022-09-09T11:44:37;2.90;;;1.93;;
41817;SDS011;27493;51.730;5.294;2022-09-09T11:47:02;2.87;;;1.90;;
41817;SDS011;27493;51.730;5.294;2022-09-09T11:49:28;3.23;;;1.80;;
41817;SDS011;27493;51.730;5.294;2022-09-09T11:51:55;4.50;;;2.03;;
41817;SDS011;27493;51.730;5.294;2022-09-09T11:54:28;2.57;;;1.80;;
41817;SDS011;27493;51.730;5.294;2022-09-09T11:56:54;3.30;;;1.80;;
41817;SDS011;27493;51.730;5.294;2022-09-09T11:59:20;3.50;;;2.10;;
41817;SDS011;27493;51.730;5.294;2022-09-09T12:01:49;2.37;;;1.93;;
41817;SDS011;27493;51.730;5.294;2022-09-09T12:04:26;3.17;;;1.90;;
41817;SDS011;27493;51.730;5.294;2022-09-09T12:09:32;2.13;;;1.67;;
41817;SDS011;27493;51.730;5.294;2022-09-09T12:12:32;2.67;;;1.77;;
41817;SDS011;27493;51.730;5.294;2022-09-09T12:15:00;1.77;;;1.60;;
41817;SDS011;27493;51.730;5.294;2022-09-09T12:17:27;4.33;;;1.73;;
41817;SDS011;27493;51.730;5.294;2022-09-09T12:22:39;1.60;;;1.50;;
41817;SDS011;27493;51.730;5.294;2022-09-09T12:27:41;4.83;;;1.80;;
41817;SDS011;27493;51.730;5.294;2022-09-09T12:30:12;2.37;;;1.67;;
41817;SDS011;27493;51.730;5.294;2022-09-09T12:32:39;3.30;;;1.67;;
41817;SDS011;27493;51.730;5.294;2022-09-09T12:35:12;2.83;;;1.87;;
41817;SDS011;27493;51.730;5.294;2022-09-09T12:37:43;3.63;;;1.90;;
41817;SDS011;27493;51.730;5.294;2022-09-09T12:40:21;2.33;;;1.67;;
41817;SDS011;27493;51.730;5.294;2022-09-09T12:42:47;2.40;;;1.50;;
41817;SDS011;27493;51.730;5.294;2022-09-09T12:45:16;3.13;;;1.93;;
41817;SDS011;27493;51.730;5.294;2022-09-09T12:47:44;3.73;;;2.07;;
41817;SDS011;27493;51.730;5.294;2022-09-09T12:52:42;4.93;;;1.83;;
41817;SDS011;27493;51.730;5.294;2022-09-09T12:55:07;2.70;;;1.70;;
41817;SDS011;27493;51.730;5.294;2022-09-09T12:57:41;3.37;;;2.10;;
41817;SDS011;27493;51.730;5.294;2022-09-09T13:00:12;2.37;;;1.60;;
41817;SDS011;27493;51.730;5.294;2022-09-09T13:02:46;6.07;;;2.13;;
41817;SDS011;27493;51.730;5.294;2022-09-09T13:05:13;5.10;;;1.80;;
41817;SDS011;27493;51.730;5.294;2022-09-09T13:07:39;2.67;;;1.97;;
41817;SDS011;27493;51.730;5.294;2022-09-09T13:10:05;2.77;;;2.00;;
41817;SDS011;27493;51.730;5.294;2022-09-09T13:12:31;1.87;;;1.53;;
41817;SDS011;27493;51.730;5.294;2022-09-09T13:14:56;3.30;;;1.77;;
41817;SDS011;27493;51.730;5.294;2022-09-09T13:17:25;2.47;;;1.80;;
41817;SDS011;27493;51.730;5.294;2022-09-09T13:19:53;2.83;;;1.63;;
41817;SDS011;27493;51.730;5.294;2022-09-09T13:24:58;2.50;;;1.50;;
41817;SDS011;27493;51.730;5.294;2022-09-09T13:27:28;1.90;;;1.60;;
41817;SDS011;27493;51.730;5.294;2022-09-09T13:29:54;2.50;;;1.60;;
41817;SDS011;27493;51.730;5.294;2022-09-09T13:32:20;4.60;;;1.60;;
41817;SDS011;27493;51.730;5.294;2022-09-09T13:34:53;4.27;;;1.50;;
41817;SDS011;27493;51.730;5.294;2022-09-09T13:39:56;1.70;;;1.60;;
41817;SDS011;27493;51.730;5.294;2022-09-09T13:42:25;3.57;;;1.53;;
41817;SDS011;27493;51.730;5.294;2022-09-09T13:44:51;4.70;;;1.70;;
41817;SDS011;27493;51.730;5.294;2022-09-09T13:47:20;3.30;;;1.50;;
41817;SDS011;27493;51.730;5.294;2022-09-09T13:49:46;4.90;;;1.47;;
41817;SDS011;27493;51.730;5.294;2022-09-09T13:52:15;2.97;;;1.60;;
41817;SDS011;27493;51.730;5.294;2022-09-09T13:54:42;1.50;;;1.30;;
41817;SDS011;27493;51.730;5.294;2022-09-09T13:57:15;2.87;;;1.30;;
41817;SDS011;27493;51.730;5.294;2022-09-09T13:59:40;2.70;;;1.50;;
41817;SDS011;27493;51.730;5.294;2022-09-09T14:02:06;2.00;;;1.13;;
41817;SDS011;27493;51.730;5.294;2022-09-09T14:04:32;1.97;;;1.40;;
41817;SDS011;27493;51.730;5.294;2022-09-09T14:06:57;5.30;;;1.60;;
41817;SDS011;27493;51.730;5.294;2022-09-09T14:09:23;1.93;;;1.73;;
41817;SDS011;27493;51.730;5.294;2022-09-09T14:11:48;2.17;;;1.30;;
41817;SDS011;27493;51.730;5.294;2022-09-09T14:14:13;3.47;;;1.30;;
41817;SDS011;27493;51.730;5.294;2022-09-09T14:16:39;1.53;;;1.43;;
41817;SDS011;27493;51.730;5.294;2022-09-09T14:19:04;3.77;;;1.50;;
41817;SDS011;27493;51.730;5.294;2022-09-09T14:21:29;1.30;;;1.20;;
41817;SDS011;27493;51.730;5.294;2022-09-09T14:23:54;3.57;;;1.60;;
41817;SDS011;27493;51.730;5.294;2022-09-09T14:26:22;1.43;;;1.30;;
41817;SDS011;27493;51.730;5.294;2022-09-09T14:28:48;2.57;;;1.60;;
41817;SDS011;27493;51.730;5.294;2022-09-09T14:31:14;1.33;;;1.17;;
41817;SDS011;27493;51.730;5.294;2022-09-09T14:33:39;2.70;;;1.23;;
41817;SDS011;27493;51.730;5.294;2022-09-09T14:36:05;1.40;;;1.30;;
41817;SDS011;27493;51.730;5.294;2022-09-09T14:38:32;2.07;;;1.27;;
41817;SDS011;27493;51.730;5.294;2022-09-09T14:40:58;2.33;;;1.60;;
41817;SDS011;27493;51.730;5.294;2022-09-09T14:43:23;1.20;;;1.10;;
41817;SDS011;27493;51.730;5.294;2022-09-09T14:45:49;1.50;;;1.17;;
41817;SDS011;27493;51.730;5.294;2022-09-09T14:48:16;1.20;;;1.07;;
41817;SDS011;27493;51.730;5.294;2022-09-09T14:50:41;2.38;;;1.27;;
41817;SDS011;27493;51.730;5.294;2022-09-09T14:53:07;2.80;;;1.30;;
41817;SDS011;27493;51.730;5.294;2022-09-09T14:55:33;2.13;;;1.20;;
41817;SDS011;27493;51.730;5.294;2022-09-09T14:57:58;1.10;;;1.03;;
41817;SDS011;27493;51.730;5.294;2022-09-09T15:00:24;1.13;;;1.00;;
41817;SDS011;27493;51.730;5.294;2022-09-09T15:02:51;1.13;;;1.03;;
41817;SDS011;27493;51.730;5.294;2022-09-09T15:05:17;2.43;;;1.87;;
41817;SDS011;27493;51.730;5.294;2022-09-09T15:07:42;2.03;;;1.33;;
41817;SDS011;27493;51.730;5.294;2022-09-09T15:10:07;1.87;;;1.20;;
41817;SDS011;27493;51.730;5.294;2022-09-09T15:12:34;1.40;;;1.30;;
41817;SDS011;27493;51.730;5.294;2022-09-09T15:15:00;1.83;;;1.40;;
41817;SDS011;27493;51.730;5.294;2022-09-09T15:17:25;1.57;;;1.47;;
41817;SDS011;27493;51.730;5.294;2022-09-09T15:19:54;1.70;;;1.40;;
41817;SDS011;27493;51.730;5.294;2022-09-09T15:22:20;1.37;;;1.20;;
41817;SDS011;27493;51.730;5.294;2022-09-09T15:24:45;3.10;;;1.33;;
41817;SDS011;27493;51.730;5.294;2022-09-09T15:27:10;2.43;;;1.23;;
41817;SDS011;27493;51.730;5.294;2022-09-09T15:29:35;1.47;;;1.10;;
41817;SDS011;27493;51.730;5.294;2022-09-09T15:32:01;1.77;;;1.60;;
41817;SDS011;27493;51.730;5.294;2022-09-09T15:34:26;2.87;;;1.83;;
41817;SDS011;27493;51.730;5.294;2022-09-09T15:36:51;1.90;;;1.70;;
41817;SDS011;27493;51.730;5.294;2022-09-09T15:39:17;1.67;;;1.57;;
41817;SDS011;27493;51.730;5.294;2022-09-09T15:41:43;2.50;;;1.60;;
41817;SDS011;27493;51.730;5.294;2022-09-09T15:44:10;4.40;;;1.83;;
41817;SDS011;27493;51.730;5.294;2022-09-09T15:46:41;3.23;;;1.70;;
41817;SDS011;27493;51.730;5.294;2022-09-09T15:49:11;3.10;;;1.70;;
41817;SDS011;27493;51.730;5.294;2022-09-09T15:51:38;3.27;;;1.50;;
41817;SDS011;27493;51.730;5.294;2022-09-09T15:54:04;3.03;;;1.47;;
41817;SDS011;27493;51.730;5.294;2022-09-09T15:56:30;1.63;;;1.50;;
41817;SDS011;27493;51.730;5.294;2022-09-09T15:58:56;1.47;;;1.30;;
41817;SDS011;27493;51.730;5.294;2022-09-09T16:01:23;1.30;;;1.20;;
41817;SDS011;27493;51.730;5.294;2022-09-09T16:03:48;3.43;;;1.57;;
41817;SDS011;27493;51.730;5.294;2022-09-09T16:06:16;1.57;;;1.30;;
41817;SDS011;27493;51.730;5.294;2022-09-09T16:08:43;1.40;;;1.30;;
41817;SDS011;27493;51.730;5.294;2022-09-09T16:11:10;4.40;;;1.43;;
41817;SDS011;27493;51.730;5.294;2022-09-09T16:13:36;1.13;;;1.10;;
41817;SDS011;27493;51.730;5.294;2022-09-09T16:16:02;1.83;;;1.40;;
41817;SDS011;27493;51.730;5.294;2022-09-09T16:18:32;1.83;;;1.30;;
41817;SDS011;27493;51.730;5.294;2022-09-09T16:20:57;2.50;;;1.33;;
41817;SDS011;27493;51.730;5.294;2022-09-09T16:23:22;1.57;;;1.30;;
41817;SDS011;27493;51.730;5.294;2022-09-09T16:25:55;1.40;;;1.30;;
41817;SDS011;27493;51.730;5.294;2022-09-09T16:28:21;2.03;;;1.40;;
41817;SDS011;27493;51.730;5.294;2022-09-09T16:30:47;1.87;;;1.63;;
41817;SDS011;27493;51.730;5.294;2022-09-09T16:33:12;2.70;;;1.50;;
41817;SDS011;27493;51.730;5.294;2022-09-09T16:35:39;2.00;;;1.60;;
41817;SDS011;27493;51.730;5.294;2022-09-09T16:38:05;2.73;;;1.50;;
41817;SDS011;27493;51.730;5.294;2022-09-09T16:40:33;2.80;;;1.40;;
41817;SDS011;27493;51.730;5.294;2022-09-09T16:42:59;1.73;;;1.47;;
41817;SDS011;27493;51.730;5.294;2022-09-09T16:45:24;3.67;;;1.90;;
41817;SDS011;27493;51.730;5.294;2022-09-09T16:47:49;2.37;;;1.60;;
41817;SDS011;27493;51.730;5.294;2022-09-09T16:50:14;1.60;;;1.50;;
41817;SDS011;27493;51.730;5.294;2022-09-09T16:52:40;3.60;;;1.70;;
41817;SDS011;27493;51.730;5.294;2022-09-09T16:55:05;2.13;;;1.80;;
41817;SDS011;27493;51.730;5.294;2022-09-09T16:57:30;3.27;;;1.83;;